Time;durP1;ratioP1;P1;durP2;ratioP2;P2;SDS_P1;SDS_P2;PMS_P1;PMS_P2;Temp;Humidity;BMP_temperature;BMP_pressure;BME280_temperature;BME280_humidity;BME280_pressure;Samples;Min_cycle;Max_cycle;Signal;HPM_P1;HPM_P2
2021/08/05 00:01:50;;;;;;;9.80;9.30;;;23.90;94.40;;;;;;3544458;40;20465;-58
2021/08/05 00:04:17;;;;;;;8.80;8.40;;;23.90;94.40;;;;;;3535019;40;20892;-59
2021/08/05 00:06:44;;;;;;;9.67;9.17;;;23.90;94.40;;;;;;3544359;40;20625;-58
2021/08/05 00:09:11;;;;;;;9.70;9.30;;;23.90;94.50;;;;;;3544489;40;20563;-60
2021/08/05 00:11:40;;;;;;;9.27;8.87;;;23.90;94.40;;;;;;3543807;40;20509;-59
2021/08/05 00:14:07;;;;;;;9.73;9.23;;;23.90;94.40;;;;;;3544066;40;20785;-59
2021/08/05 00:16:34;;;;;;;9.93;9.47;;;23.90;94.40;;;;;;3544104;40;20622;-59
2021/08/05 00:19:01;;;;;;;9.67;9.27;;;23.90;94.40;;;;;;3543590;40;20477;-60
2021/08/05 00:21:29;;;;;;;9.20;8.83;;;23.90;94.40;;;;;;3544228;40;20470;-60
2021/08/05 00:23:56;;;;;;;9.40;9.00;;;23.90;94.40;;;;;;3544228;40;20565;-60
2021/08/05 00:26:23;;;;;;;10.10;9.60;;;23.90;94.40;;;;;;3544331;40;20667;-59
2021/08/05 00:28:52;;;;;;;10.50;10.00;;;23.90;94.40;;;;;;3534790;40;20911;-60
2021/08/05 00:31:19;;;;;;;9.17;8.87;;;23.90;94.40;;;;;;3544479;40;20450;-59
2021/08/05 00:33:46;;;;;;;9.23;8.83;;;23.90;94.40;;;;;;3543625;40;20545;-59
2021/08/05 00:36:14;;;;;;;9.00;8.60;;;23.90;94.50;;;;;;3533924;40;20458;-57
2021/08/05 00:38:41;;;;;;;9.10;8.70;;;23.90;94.40;;;;;;3542139;40;20481;-59
2021/08/05 00:41:08;;;;;;;8.93;8.53;;;23.90;94.40;;;;;;3543288;40;20541;-60
2021/08/05 00:43:36;;;;;;;9.30;8.90;;;23.90;94.40;;;;;;3543033;40;20461;-60
2021/08/05 00:46:04;;;;;;;9.17;8.77;;;23.90;94.40;;;;;;3542809;40;20821;-59
2021/08/05 00:48:31;;;;;;;9.37;8.93;;;23.90;94.40;;;;;;3543273;40;20860;-59
2021/08/05 00:50:59;;;;;;;8.67;8.27;;;23.90;94.40;;;;;;3543333;40;20585;-59
2021/08/05 00:53:28;;;;;;;9.43;8.93;;;23.90;94.40;;;;;;3540651;40;20518;-60
2021/08/05 00:55:55;;;;;;;9.43;9.03;;;23.90;94.50;;;;;;3533926;40;20558;-60
2021/08/05 00:58:22;;;;;;;9.33;8.93;;;23.90;94.40;;;;;;3534106;40;20530;-59
2021/08/05 01:00:53;;;;;;;9.10;8.70;;;23.90;94.50;;;;;;3525950;40;20471;-59
2021/08/05 01:03:26;;;;;;;9.87;9.47;;;23.90;94.40;;;;;;3534179;40;20853;-59
2021/08/05 01:06:02;;;;;;;9.33;8.87;;;23.90;94.50;;;;;;3535129;40;20832;-59
2021/08/05 01:08:30;;;;;;;9.20;8.83;;;23.90;94.50;;;;;;3533724;40;20506;-59
2021/08/05 01:11:07;;;;;;;9.70;9.30;;;23.90;94.40;;;;;;3535159;40;20469;-58
2021/08/05 01:13:38;;;;;;;10.30;9.70;;;23.90;94.50;;;;;;3525867;40;20466;-58
2021/08/05 01:16:12;;;;;;;10.27;9.80;;;23.90;94.50;;;;;;3535068;40;20525;-58
2021/08/05 01:18:42;;;;;;;9.90;9.50;;;23.90;94.50;;;;;;3535981;40;20454;-57
2021/08/05 01:21:14;;;;;;;10.53;10.13;;;23.90;94.40;;;;;;3535868;40;20467;-56
2021/08/05 01:23:46;;;;;;;10.53;10.03;;;23.90;94.50;;;;;;3534877;40;20524;-59
2021/08/05 01:26:17;;;;;;;9.70;9.30;;;23.90;94.50;;;;;;3534892;40;20503;-58
2021/08/05 01:28:48;;;;;;;10.07;9.63;;;23.90;94.50;;;;;;3525881;40;20866;-59
2021/08/05 01:31:17;;;;;;;9.70;9.20;;;23.90;94.50;;;;;;3535328;40;20474;-60
2021/08/05 01:33:47;;;;;;;9.33;8.93;;;23.90;94.50;;;;;;3534726;40;20700;-60
2021/08/05 01:36:14;;;;;;;10.00;9.60;;;23.90;94.50;;;;;;3534180;40;20525;-60
2021/08/05 01:38:43;;;;;;;9.83;9.43;;;23.90;94.50;;;;;;3534670;40;20889;-58
2021/08/05 01:41:12;;;;;;;10.13;9.67;;;23.90;94.50;;;;;;3535231;40;20850;-59
2021/08/05 01:43:40;;;;;;;9.77;9.27;;;23.90;94.50;;;;;;3536162;40;20474;-59
2021/08/05 01:46:08;;;;;;;9.23;8.83;;;23.90;94.50;;;;;;3535094;40;20510;-59
2021/08/05 01:48:38;;;;;;;9.00;8.67;;;23.90;94.50;;;;;;3535729;40;20470;-59
2021/08/05 01:51:06;;;;;;;9.33;8.93;;;23.90;94.50;;;;;;3534688;40;20558;-59
2021/08/05 01:53:34;;;;;;;9.20;8.90;;;23.90;94.50;;;;;;3537690;40;21021;-59
2021/08/05 01:56:01;;;;;;;9.90;9.50;;;23.90;94.50;;;;;;3536230;40;20856;-59
2021/08/05 01:58:28;;;;;;;9.83;9.43;;;23.90;94.50;;;;;;3545114;40;20461;-60
2021/08/05 02:00:56;;;;;;;10.13;9.63;;;23.90;94.50;;;;;;3536127;40;20483;-60
2021/08/05 02:03:24;;;;;;;9.80;9.40;;;23.90;94.50;;;;;;3545932;40;20735;-59
2021/08/05 02:06:03;;;;;;;10.43;9.93;;;23.90;94.50;;;;;;3545220;40;20648;-60
2021/08/05 02:08:39;;;;;;;10.67;10.17;;;23.90;94.50;;;;;;3544121;40;20497;-59
2021/08/05 02:11:07;;;;;;;10.00;9.60;;;23.90;94.50;;;;;;3544002;40;20938;-60
2021/08/05 02:13:40;;;;;;;10.40;10.00;;;23.90;94.50;;;;;;3543015;40;20454;-60
2021/08/05 02:16:10;;;;;;;10.03;9.60;;;23.90;94.50;;;;;;3543694;40;20743;-59
2021/08/05 02:18:43;;;;;;;9.60;9.20;;;23.90;94.50;;;;;;3545171;40;20755;-60
2021/08/05 02:21:13;;;;;;;9.90;9.50;;;23.90;94.50;;;;;;3545297;40;20500;-60
2021/08/05 02:23:41;;;;;;;9.47;9.07;;;23.90;94.50;;;;;;3545796;40;20541;-60
2021/08/05 02:26:09;;;;;;;8.97;8.63;;;23.90;94.40;;;;;;3545594;40;20739;-60
2021/08/05 02:28:37;;;;;;;9.47;9.07;;;23.90;94.50;;;;;;3543602;40;20694;-59
2021/08/05 02:31:07;;;;;;;9.70;9.30;;;23.90;94.50;;;;;;3543764;40;20586;-59
2021/08/05 02:33:36;;;;;;;9.80;9.40;;;23.80;94.40;;;;;;3544816;40;20461;-59
2021/08/05 02:36:05;;;;;;;9.70;9.30;;;23.90;94.50;;;;;;3544565;40;20836;-59
2021/08/05 02:38:33;;;;;;;8.63;8.23;;;23.90;94.50;;;;;;3535901;40;20569;-59
2021/08/05 02:41:01;;;;;;;9.73;9.33;;;23.90;94.50;;;;;;3543473;40;20798;-59
2021/08/05 02:43:32;;;;;;;9.80;9.30;;;23.80;94.40;;;;;;3544858;40;20470;-59
2021/08/05 02:46:00;;;;;;;9.70;9.30;;;23.80;94.40;;;;;;3544938;40;20484;-59
2021/08/05 02:48:28;;;;;;;9.93;9.43;;;23.80;94.40;;;;;;3545104;40;20473;-60
2021/08/05 02:50:57;;;;;;;9.50;9.10;;;23.90;94.80;;;;;;3544561;40;20480;-60
2021/08/05 02:53:27;;;;;;;9.73;9.33;;;23.90;94.50;;;;;;3544257;40;20477;-59
2021/08/05 02:55:55;;;;;;;10.50;10.00;;;23.90;94.50;;;;;;3534370;40;20552;-58
2021/08/05 02:58:23;;;;;;;9.63;9.23;;;23.90;94.50;;;;;;3545013;40;20845;-60
2021/08/05 03:00:50;;;;;;;9.90;9.50;;;23.80;94.40;;;;;;3544317;40;21023;-60
2021/08/05 03:03:22;;;;;;;9.97;9.53;;;23.80;94.40;;;;;;3544632;40;20466;-59
2021/08/05 03:05:51;;;;;;;9.40;9.00;;;23.90;94.50;;;;;;3543871;40;20458;-58
2021/08/05 03:08:18;;;;;;;10.03;9.53;;;23.90;94.50;;;;;;3543809;40;20875;-60
2021/08/05 03:10:47;;;;;;;9.20;8.80;;;23.80;94.40;;;;;;3544240;40;20454;-59
2021/08/05 03:13:14;;;;;;;9.30;8.90;;;23.80;94.40;;;;;;3545214;40;20454;-58
2021/08/05 03:15:42;;;;;;;8.77;8.47;;;23.90;94.50;;;;;;3545245;40;20884;-59
2021/08/05 03:18:09;;;;;;;10.20;9.70;;;23.80;94.40;;;;;;3544439;40;20548;-59
2021/08/05 03:20:36;;;;;;;9.60;9.20;;;23.90;94.50;;;;;;3543567;40;20900;-58
2021/08/05 03:23:04;;;;;;;10.50;10.03;;;23.80;94.40;;;;;;3543119;40;20791;-60
2021/08/05 03:25:31;;;;;;;9.73;9.33;;;23.80;94.40;;;;;;3544924;40;20782;-60
2021/08/05 03:28:02;;;;;;;10.20;9.70;;;23.90;94.50;;;;;;3544797;40;20462;-60
2021/08/05 03:30:29;;;;;;;9.60;9.20;;;23.80;94.40;;;;;;3543792;40;20509;-60
2021/08/05 03:33:00;;;;;;;10.40;9.90;;;23.90;94.50;;;;;;3543583;40;20478;-60
2021/08/05 03:35:27;;;;;;;10.93;10.50;;;23.80;94.40;;;;;;3543830;40;20454;-59
2021/08/05 03:37:55;;;;;;;10.40;10.00;;;23.80;94.40;;;;;;3543913;40;20944;-57
2021/08/05 03:40:22;;;;;;;10.53;10.13;;;23.80;94.40;;;;;;3543477;40;20453;-58
2021/08/05 03:42:49;;;;;;;9.87;9.47;;;23.80;94.40;;;;;;3544127;40;20461;-59
2021/08/05 03:45:18;;;;;;;9.43;9.03;;;23.80;94.40;;;;;;3544348;40;20733;-59
2021/08/05 03:47:46;;;;;;;9.90;9.50;;;23.80;94.40;;;;;;3544213;40;20503;-60
2021/08/05 03:50:13;;;;;;;10.80;10.30;;;23.80;94.40;;;;;;3543623;40;20477;-60
2021/08/05 03:52:41;;;;;;;10.77;10.27;;;23.80;94.50;;;;;;3543430;40;20469;-58
2021/08/05 03:55:12;;;;;;;11.23;10.73;;;23.80;94.40;;;;;;3543125;40;20500;-60
2021/08/05 03:57:40;;;;;;;10.40;10.00;;;23.80;94.40;;;;;;3544130;40;20574;-59
2021/08/05 04:00:10;;;;;;;10.30;9.90;;;23.80;94.40;;;;;;3543812;40;20847;-60
2021/08/05 04:02:41;;;;;;;11.50;11.10;;;23.80;94.50;;;;;;3543817;40;20720;-58
2021/08/05 04:05:10;;;;;;;11.57;11.07;;;23.80;94.40;;;;;;3544492;40;20446;-58
2021/08/05 04:07:38;;;;;;;10.80;10.40;;;23.80;94.40;;;;;;3543604;40;20765;-60
2021/08/05 04:10:07;;;;;;;11.50;11.10;;;23.80;94.40;;;;;;3544288;40;20759;-60
2021/08/05 04:12:34;;;;;;;11.03;10.63;;;23.80;94.50;;;;;;3544067;40;20766;-56
2021/08/05 04:15:02;;;;;;;11.67;11.20;;;23.80;94.40;;;;;;3543667;40;20470;-59
2021/08/05 04:17:29;;;;;;;11.30;10.90;;;23.80;94.50;;;;;;3544264;40;21039;-58
2021/08/05 04:19:58;;;;;;;10.83;10.43;;;23.80;94.50;;;;;;3543017;40;20473;-58
2021/08/05 04:22:25;;;;;;;11.30;10.80;;;23.80;94.50;;;;;;3541849;40;20725;-60
2021/08/05 04:24:52;;;;;;;11.93;11.43;;;23.80;94.50;;;;;;3541660;40;20477;-59
2021/08/05 04:27:20;;;;;;;11.47;11.07;;;23.80;94.50;;;;;;3541418;40;20599;-59
2021/08/05 04:29:47;;;;;;;11.40;11.00;;;23.80;94.50;;;;;;3541457;40;20462;-58
2021/08/05 04:32:14;;;;;;;11.80;11.30;;;23.80;94.50;;;;;;3539550;40;20493;-59
2021/08/05 04:34:42;;;;;;;11.27;10.87;;;23.80;94.50;;;;;;3540218;40;20677;-58
2021/08/05 04:37:11;;;;;;;11.53;11.10;;;23.80;94.50;;;;;;3540902;40;20462;-59
2021/08/05 04:39:39;;;;;;;11.40;10.90;;;23.80;94.50;;;;;;3539746;40;20702;-58
2021/08/05 04:42:06;;;;;;;11.87;11.37;;;23.80;94.50;;;;;;3540078;40;20454;-59
2021/08/05 04:44:34;;;;;;;11.30;10.90;;;23.80;94.50;;;;;;3539764;40;20536;-59
2021/08/05 04:47:02;;;;;;;11.77;11.30;;;23.80;94.50;;;;;;3538145;40;21006;-58
2021/08/05 04:49:30;;;;;;;11.63;11.13;;;23.80;94.50;;;;;;3538049;40;20745;-58
2021/08/05 04:51:57;;;;;;;11.07;10.67;;;23.80;94.50;;;;;;3536922;40;20465;-60
2021/08/05 04:54:27;;;;;;;11.20;10.70;;;23.80;94.50;;;;;;3537859;40;20975;-59
2021/08/05 04:56:54;;;;;;;11.13;10.70;;;23.80;94.50;;;;;;3538571;40;20711;-59
2021/08/05 04:59:22;;;;;;;11.50;11.00;;;23.80;94.50;;;;;;3538095;40;20473;-57
2021/08/05 05:01:49;;;;;;;11.07;10.67;;;23.80;94.50;;;;;;3537993;40;20779;-59
2021/08/05 05:04:16;;;;;;;10.90;10.50;;;23.80;94.50;;;;;;3537493;40;20663;-59
2021/08/05 05:06:43;;;;;;;11.60;11.10;;;23.80;94.50;;;;;;3537752;40;20465;-59
2021/08/05 05:09:11;;;;;;;11.33;10.90;;;23.80;94.50;;;;;;3538108;40;20497;-59
2021/08/05 05:11:39;;;;;;;11.70;11.20;;;23.80;94.50;;;;;;3535668;40;20726;-59
2021/08/05 05:14:07;;;;;;;11.13;10.73;;;23.80;94.50;;;;;;3538376;40;20473;-59
2021/08/05 05:16:34;;;;;;;10.73;10.33;;;23.80;94.50;;;;;;3536360;40;20503;-58
2021/08/05 05:19:01;;;;;;;10.73;10.33;;;23.80;94.50;;;;;;3536283;40;20915;-58
2021/08/05 05:21:28;;;;;;;11.63;11.03;;;23.80;94.50;;;;;;3535494;40;20876;-60
2021/08/05 05:23:56;;;;;;;11.07;10.60;;;23.80;94.40;;;;;;3533416;40;20827;-60
2021/08/05 05:26:23;;;;;;;11.30;10.90;;;23.80;94.50;;;;;;3534189;40;20673;-59
2021/08/05 05:28:52;;;;;;;10.80;10.40;;;23.80;94.50;;;;;;3525239;40;20469;-57
2021/08/05 05:31:19;;;;;;;10.97;10.47;;;23.80;94.50;;;;;;3533823;40;20454;-59
2021/08/05 05:33:47;;;;;;;10.60;10.20;;;23.80;94.50;;;;;;3534627;40;20622;-58
2021/08/05 05:36:14;;;;;;;10.93;10.53;;;23.80;94.50;;;;;;3533590;40;20746;-57
2021/08/05 05:38:41;;;;;;;10.67;10.27;;;23.80;94.50;;;;;;3532896;40;20511;-59
2021/08/05 05:41:09;;;;;;;11.10;10.63;;;23.80;94.50;;;;;;3532710;40;20549;-59
2021/08/05 05:43:36;;;;;;;10.70;10.30;;;23.80;94.40;;;;;;3532746;40;20576;-59
2021/08/05 05:46:05;;;;;;;11.43;11.00;;;23.80;94.50;;;;;;3533232;40;20872;-58
2021/08/05 05:48:32;;;;;;;11.60;11.10;;;23.80;94.50;;;;;;3535180;40;20750;-59
2021/08/05 05:51:00;;;;;;;11.20;10.80;;;23.80;94.50;;;;;;3532017;40;20473;-57
2021/08/05 05:53:27;;;;;;;10.80;10.40;;;23.80;94.50;;;;;;3531264;40;20871;-59
2021/08/05 05:55:55;;;;;;;11.33;10.83;;;23.80;94.50;;;;;;3530479;40;20782;-60
2021/08/05 05:58:22;;;;;;;11.00;10.50;;;23.80;94.50;;;;;;3532090;40;20470;-60
2021/08/05 06:00:50;;;;;;;10.00;9.70;;;23.80;94.50;;;;;;3530633;40;21095;-57
2021/08/05 06:03:18;;;;;;;10.70;10.30;;;23.80;94.50;;;;;;3529419;40;20592;-59
2021/08/05 06:05:46;;;;;;;11.27;10.77;;;23.80;94.50;;;;;;3528771;40;21004;-59
2021/08/05 06:08:13;;;;;;;10.80;10.40;;;23.90;94.50;;;;;;3528272;40;20477;-59
2021/08/05 06:10:41;;;;;;;11.20;10.80;;;23.90;94.50;;;;;;3528106;40;20710;-60
2021/08/05 06:13:09;;;;;;;11.60;11.10;;;23.80;94.50;;;;;;3527022;40;20554;-59
2021/08/05 06:15:36;;;;;;;11.53;11.03;;;23.90;94.50;;;;;;3526498;40;20462;-58
2021/08/05 06:18:04;;;;;;;11.20;10.80;;;23.90;94.50;;;;;;3527703;40;20564;-59
2021/08/05 06:20:33;;;;;;;11.10;10.70;;;23.90;94.50;;;;;;3526479;40;20681;-60
2021/08/05 06:23:00;;;;;;;11.73;11.23;;;23.90;94.80;;;;;;3526747;40;20710;-59
2021/08/05 06:25:28;;;;;;;11.57;11.07;;;23.80;94.50;;;;;;3527513;40;21013;-60
2021/08/05 06:27:58;;;;;;;10.70;10.30;;;23.90;94.50;;;;;;3527024;40;20478;-59
2021/08/05 06:30:25;;;;;;;11.00;10.60;;;23.80;94.50;;;;;;3526274;40;20497;-58
2021/08/05 06:32:53;;;;;;;10.77;10.33;;;23.90;94.60;;;;;;3524915;40;20457;-59
2021/08/05 06:35:20;;;;;;;10.33;9.93;;;23.90;94.50;;;;;;3527836;40;20457;-59
2021/08/05 06:37:49;;;;;;;10.90;10.50;;;23.90;94.50;;;;;;3521789;40;21059;-60
2021/08/05 06:40:16;;;;;;;10.87;10.47;;;23.90;94.50;;;;;;3527004;40;20469;-59
2021/08/05 06:42:45;;;;;;;11.20;10.63;;;23.90;94.50;;;;;;3520424;40;20800;-59
2021/08/05 06:45:17;;;;;;;11.27;10.87;;;23.90;94.50;;;;;;3518396;40;20458;-58
2021/08/05 06:47:50;;;;;;;10.93;10.53;;;23.90;94.50;;;;;;3519774;40;20459;-60
2021/08/05 06:50:20;;;;;;;10.93;10.53;;;23.90;94.50;;;;;;3518184;40;20883;-58
2021/08/05 06:52:50;;;;;;;11.23;10.80;;;23.90;94.60;;;;;;3519897;40;20506;-59
2021/08/05 06:55:18;;;;;;;11.77;11.17;;;23.90;94.60;;;;;;3518877;40;20459;-59
2021/08/05 06:57:50;;;;;;;11.03;10.53;;;23.90;94.60;;;;;;3517111;40;20477;-58
2021/08/05 07:00:18;;;;;;;11.40;10.90;;;23.90;94.70;;;;;;3517194;40;20470;-60
2021/08/05 07:02:46;;;;;;;11.00;10.50;;;23.90;94.60;;;;;;3519206;40;20463;-60
2021/08/05 07:05:13;;;;;;;11.30;10.60;;;23.90;94.70;;;;;;3519326;40;20458;-60
2021/08/05 07:07:41;;;;;;;11.30;10.70;;;23.90;94.70;;;;;;3517905;40;20527;-59
2021/08/05 07:10:10;;;;;;;11.10;10.70;;;23.90;94.70;;;;;;3518626;40;20507;-60
2021/08/05 07:12:38;;;;;;;11.27;10.77;;;23.90;94.70;;;;;;3518259;40;20451;-60
2021/08/05 07:15:07;;;;;;;11.80;11.30;;;23.90;94.70;;;;;;3520239;40;20485;-60
2021/08/05 07:17:34;;;;;;;11.70;11.20;;;23.90;94.80;;;;;;3521225;40;20534;-60
2021/08/05 07:20:01;;;;;;;11.27;10.70;;;23.90;94.80;;;;;;3517193;40;20451;-60
2021/08/05 07:22:29;;;;;;;11.87;11.37;;;23.90;94.80;;;;;;3519526;40;20447;-60
2021/08/05 07:24:56;;;;;;;11.67;11.17;;;23.90;94.80;;;;;;3518698;40;20475;-60
2021/08/05 07:27:25;;;;;;;12.30;11.80;;;23.90;94.80;;;;;;3519921;40;21156;-59
2021/08/05 07:29:52;;;;;;;11.70;11.20;;;23.90;94.80;;;;;;3520456;40;20497;-60
2021/08/05 07:32:20;;;;;;;11.83;11.33;;;24.00;94.90;;;;;;3519594;40;20531;-60
2021/08/05 07:34:47;;;;;;;11.90;11.30;;;24.00;94.90;;;;;;3519190;40;20872;-60
2021/08/05 07:37:14;;;;;;;12.00;11.50;;;24.00;94.90;;;;;;3520549;40;20485;-59
2021/08/05 07:39:42;;;;;;;11.87;11.37;;;24.00;94.90;;;;;;3517150;40;21296;-60
2021/08/05 07:42:10;;;;;;;11.50;11.10;;;24.00;95.00;;;;;;3514523;40;20462;-60
2021/08/05 07:44:38;;;;;;;12.27;11.77;;;24.00;95.00;;;;;;3508125;40;20459;-60
2021/08/05 07:47:06;;;;;;;11.13;10.73;;;24.00;95.00;;;;;;3518246;40;20454;-60
2021/08/05 07:49:34;;;;;;;11.80;11.10;;;24.00;95.00;;;;;;3516950;40;21208;-60
2021/08/05 07:52:01;;;;;;;11.60;11.10;;;24.00;95.00;;;;;;3518622;40;20443;-60
2021/08/05 07:54:28;;;;;;;11.13;10.70;;;24.00;95.00;;;;;;3523277;40;21390;-60
2021/08/05 07:56:56;;;;;;;12.37;11.27;;;24.00;95.00;;;;;;3525791;40;20469;-60
2021/08/05 07:59:23;;;;;;;11.30;10.80;;;24.00;95.00;;;;;;3527545;40;20482;-60
2021/08/05 08:01:52;;;;;;;10.73;10.23;;;24.00;95.10;;;;;;3525971;40;20852;-61
2021/08/05 08:04:19;;;;;;;11.10;10.60;;;24.00;95.10;;;;;;3527219;40;20469;-59
2021/08/05 08:06:46;;;;;;;11.47;10.87;;;24.00;95.10;;;;;;3528387;40;20549;-59
2021/08/05 08:09:14;;;;;;;11.00;10.50;;;24.00;95.10;;;;;;3526483;40;20912;-60
2021/08/05 08:11:41;;;;;;;10.80;10.30;;;24.00;95.10;;;;;;3526269;40;20465;-60
2021/08/05 08:14:11;;;;;;;11.10;10.60;;;24.00;95.10;;;;;;3525505;40;20464;-60
2021/08/05 08:16:40;;;;;;;11.37;10.87;;;24.00;95.10;;;;;;3527195;40;20557;-56
2021/08/05 08:19:08;;;;;;;11.63;11.13;;;24.00;95.10;;;;;;3526663;40;20473;-60
2021/08/05 08:21:36;;;;;;;11.20;10.80;;;24.00;95.10;;;;;;3530163;40;20445;-61
2021/08/05 08:24:03;;;;;;;11.70;11.10;;;24.00;95.10;;;;;;3528509;40;20466;-60
2021/08/05 08:26:31;;;;;;;11.30;10.83;;;24.00;95.10;;;;;;3530086;40;20470;-59
2021/08/05 08:28:58;;;;;;;11.00;10.20;;;24.00;95.10;;;;;;3531219;40;20454;-60
2021/08/05 08:31:27;;;;;;;11.67;11.17;;;24.00;95.10;;;;;;3527727;40;20478;-61
2021/08/05 08:33:55;;;;;;;11.70;11.20;;;24.00;95.10;;;;;;3527876;40;20474;-58
2021/08/05 08:36:25;;;;;;;10.57;10.17;;;24.00;95.10;;;;;;3526976;40;21377;-60
2021/08/05 08:38:52;;;;;;;10.80;10.30;;;24.00;95.10;;;;;;3527089;40;20477;-59
2021/08/05 08:41:20;;;;;;;10.50;10.00;;;24.00;95.10;;;;;;3526752;40;20573;-60
2021/08/05 08:43:48;;;;;;;10.80;10.30;;;24.00;95.10;;;;;;3525446;40;21139;-60
2021/08/05 08:46:20;;;;;;;11.00;10.50;;;24.00;95.10;;;;;;3526687;40;20470;-60
2021/08/05 08:48:48;;;;;;;11.63;11.00;;;24.00;95.10;;;;;;3525961;40;20462;-59
2021/08/05 08:51:18;;;;;;;12.07;11.57;;;24.00;95.10;;;;;;3525718;40;20664;-60
2021/08/05 08:53:50;;;;;;;11.50;11.00;;;24.00;95.10;;;;;;3525663;40;21416;-58
2021/08/05 08:56:21;;;;;;;11.77;11.33;;;24.00;95.10;;;;;;3529262;40;20489;-60
2021/08/05 08:58:49;;;;;;;12.33;11.73;;;24.00;95.10;;;;;;3529699;40;20482;-60
2021/08/05 09:01:17;;;;;;;12.30;11.70;;;24.00;95.20;;;;;;3526780;40;20476;-60
2021/08/05 09:03:45;;;;;;;11.73;11.13;;;24.00;95.10;;;;;;3527335;40;20549;-59
2021/08/05 09:06:12;;;;;;;12.37;11.57;;;24.00;95.10;;;;;;3526143;40;20584;-60
2021/08/05 09:08:41;;;;;;;11.20;10.80;;;24.00;95.20;;;;;;3526545;40;20520;-60
2021/08/05 09:11:10;;;;;;;12.00;11.40;;;24.00;95.10;;;;;;3525672;40;20610;-60
2021/08/05 09:13:38;;;;;;;11.47;11.00;;;24.00;95.20;;;;;;3526966;40;21372;-61
2021/08/05 09:16:23;;;;;;;11.13;10.63;;;24.00;95.20;;;;;;3525876;40;20478;-59
2021/08/05 09:18:51;;;;;;;12.20;11.53;;;24.00;95.20;;;;;;3526849;40;20549;-59
2021/08/05 09:21:22;;;;;;;11.87;11.27;;;24.00;95.10;;;;;;3527862;40;20942;-59
2021/08/05 09:24:03;;;;;;;12.30;11.77;;;24.00;95.20;;;;;;3529321;40;20461;-58
2021/08/05 09:26:37;;;;;;;11.67;11.17;;;24.00;95.20;;;;;;3527436;40;20903;-60
2021/08/05 09:29:11;;;;;;;11.33;10.93;;;24.00;95.20;;;;;;3527421;40;20453;-60
2021/08/05 09:31:41;;;;;;;12.67;11.87;;;24.00;95.20;;;;;;3519752;40;20502;-60
2021/08/05 09:34:13;;;;;;;11.60;11.10;;;24.00;95.20;;;;;;3527576;40;20473;-60
2021/08/05 09:36:44;;;;;;;11.97;11.37;;;24.00;95.20;;;;;;3524758;40;20485;-61
2021/08/05 09:39:17;;;;;;;12.07;11.37;;;24.00;95.20;;;;;;3525177;40;20536;-61
2021/08/05 09:41:58;;;;;;;12.70;11.77;;;24.00;95.20;;;;;;3528094;40;20442;-60
2021/08/05 09:44:26;;;;;;;12.80;12.10;;;24.00;95.20;;;;;;3529792;40;20458;-60
2021/08/05 09:47:05;;;;;;;13.17;12.57;;;24.00;95.20;;;;;;3528746;40;20469;-60
2021/08/05 09:49:34;;;;;;;13.20;12.40;;;24.00;95.20;;;;;;3528047;40;20884;-60
2021/08/05 09:52:05;;;;;;;12.93;12.40;;;24.00;95.20;;;;;;3520213;40;20564;-59
2021/08/05 09:54:40;;;;;;;12.20;11.70;;;24.00;95.20;;;;;;3527315;40;20604;-60
2021/08/05 09:57:11;;;;;;;12.23;11.53;;;24.00;95.20;;;;;;3528394;40;21043;-60
2021/08/05 09:59:57;;;;;;;12.40;11.80;;;24.00;95.20;;;;;;3525315;40;20465;-59
2021/08/05 10:02:26;;;;;;;11.30;10.80;;;24.00;95.20;;;;;;3527373;40;20465;-59
2021/08/05 10:04:54;;;;;;;11.80;11.20;;;24.00;95.10;;;;;;3527936;40;20470;-59
2021/08/05 10:07:21;;;;;;;11.47;10.87;;;24.00;95.20;;;;;;3529566;40;20454;-59
2021/08/05 10:09:57;;;;;;;12.53;11.77;;;24.00;95.10;;;;;;3527542;40;20474;-60
2021/08/05 10:12:31;;;;;;;11.77;11.27;;;24.00;95.10;;;;;;3527374;40;20742;-59
2021/08/05 10:15:08;;;;;;;11.20;10.70;;;24.00;95.10;;;;;;3526281;40;20458;-58
2021/08/05 10:17:37;;;;;;;12.93;12.33;;;24.00;95.10;;;;;;3528604;40;20458;-59
2021/08/05 10:20:06;;;;;;;11.50;10.90;;;24.00;95.00;;;;;;3528310;40;20587;-59
2021/08/05 10:22:35;;;;;;;11.60;11.00;;;24.00;95.10;;;;;;3527774;40;20521;-60
2021/08/05 10:25:04;;;;;;;12.13;11.50;;;24.00;95.00;;;;;;3525943;40;20470;-60
2021/08/05 10:27:33;;;;;;;11.80;11.30;;;24.00;95.00;;;;;;3528131;40;20481;-59
2021/08/05 10:30:01;;;;;;;11.47;10.97;;;24.00;95.00;;;;;;3529027;40;20508;-60
2021/08/05 10:32:30;;;;;;;12.07;11.37;;;24.00;95.00;;;;;;3529373;40;20470;-60
2021/08/05 10:34:57;;;;;;;12.50;11.80;;;24.00;95.00;;;;;;3529792;40;21235;-59
2021/08/05 10:37:35;;;;;;;12.33;11.50;;;24.00;95.00;;;;;;3526208;40;20804;-56
2021/08/05 10:40:04;;;;;;;12.20;11.60;;;24.00;95.00;;;;;;3527611;40;20689;-59
2021/08/05 10:42:33;;;;;;;12.03;11.33;;;24.00;95.00;;;;;;3530476;40;20466;-60
2021/08/05 10:45:01;;;;;;;12.10;11.50;;;24.10;95.00;;;;;;3529907;40;20991;-60
2021/08/05 10:47:30;;;;;;;11.70;11.10;;;24.00;94.90;;;;;;3529652;40;20476;-59
2021/08/05 10:50:01;;;;;;;11.50;10.90;;;24.10;95.00;;;;;;3528250;40;20502;-60
2021/08/05 10:52:42;;;;;;;11.60;10.60;;;24.10;95.30;;;;;;3529333;40;20604;-60
2021/08/05 10:55:24;;;;;;;12.00;11.20;;;24.10;94.90;;;;;;3527517;40;20493;-59
2021/08/05 10:58:15;;;;;;;12.17;11.67;;;24.10;94.90;;;;;;3528787;40;20503;-59
2021/08/05 11:01:01;;;;;;;11.20;10.40;;;24.10;94.80;;;;;;3531232;40;20482;-60
2021/08/05 11:03:46;;;;;;;11.07;10.47;;;24.10;94.80;;;;;;3527053;40;20481;-59
2021/08/05 11:06:33;;;;;;;11.47;10.97;;;24.10;94.80;;;;;;3529475;40;20446;-58
2021/08/05 11:09:33;;;;;;;11.70;11.10;;;24.10;94.80;;;;;;3530887;40;20497;-61
2021/08/05 11:12:40;;;;;;;11.60;11.10;;;24.10;94.80;;;;;;3529119;40;20516;-60
2021/08/05 11:15:41;;;;;;;11.80;11.20;;;24.10;94.80;;;;;;3505792;40;20483;-59
2021/08/05 11:18:23;;;;;;;10.70;10.00;;;24.10;94.80;;;;;;3530132;40;20454;-60
2021/08/05 11:21:26;;;;;;;11.40;10.73;;;24.10;94.80;;;;;;3530587;40;20489;-59
2021/08/05 11:23:54;;;;;;;11.00;10.50;;;24.10;94.90;;;;;;3530110;40;20509;-60
2021/08/05 11:26:22;;;;;;;10.93;10.43;;;24.10;94.80;;;;;;3531253;40;21183;-61
2021/08/05 11:28:51;;;;;;;10.80;10.20;;;24.10;94.90;;;;;;3527479;40;20497;-60
2021/08/05 11:31:37;;;;;;;11.77;10.97;;;24.10;94.80;;;;;;3523091;40;20494;-59
2021/08/05 11:34:09;;;;;;;11.07;10.57;;;24.10;94.90;;;;;;3523919;40;20766;-59
2021/08/05 11:36:48;;;;;;;11.53;11.03;;;24.10;94.80;;;;;;3525105;40;20462;-60
2021/08/05 11:39:27;;;;;;;11.40;10.90;;;24.10;94.80;;;;;;3526973;40;20694;-61
2021/08/05 11:42:03;;;;;;;11.40;10.80;;;24.10;94.80;;;;;;3525888;40;20569;-60
2021/08/05 11:44:33;;;;;;;11.53;10.70;;;24.10;94.70;;;;;;3523134;40;20890;-61
2021/08/05 11:47:12;;;;;;;11.40;10.87;;;24.10;94.60;;;;;;3523898;40;20585;-60
2021/08/05 11:49:42;;;;;;;10.90;10.40;;;24.10;94.60;;;;;;3525061;40;20469;-60
2021/08/05 11:52:12;;;;;;;11.10;10.63;;;24.10;94.60;;;;;;3525451;40;20821;-61
2021/08/05 11:54:42;;;;;;;11.07;10.37;;;24.10;94.50;;;;;;3523136;40;20486;-60
2021/08/05 11:57:12;;;;;;;11.03;10.43;;;24.10;94.50;;;;;;3524261;40;20584;-60
2021/08/05 11:59:41;;;;;;;11.40;10.80;;;24.10;94.40;;;;;;3518284;40;20455;-60
2021/08/05 12:02:10;;;;;;;11.70;11.10;;;24.10;94.40;;;;;;3528114;40;20466;-61
2021/08/05 12:04:38;;;;;;;12.13;11.13;;;24.10;94.40;;;;;;3527856;40;20456;-60
2021/08/05 12:07:31;;;;;;;13.00;12.37;;;24.10;94.40;;;;;;3526036;40;20546;-60
2021/08/05 12:10:09;;;;;;;13.40;12.63;;;24.10;94.80;;;;;;3517493;40;20473;-59
2021/08/05 12:12:39;;;;;;;11.50;11.00;;;24.10;94.50;;;;;;3527178;40;20903;-61
2021/08/05 12:15:09;;;;;;;12.10;11.47;;;24.10;94.50;;;;;;3524894;40;20553;-59
2021/08/05 12:17:48;;;;;;;11.33;10.83;;;24.10;94.50;;;;;;3528895;40;20461;-59
2021/08/05 12:20:21;;;;;;;11.70;11.17;;;24.10;94.50;;;;;;3528177;40;20469;-60
2021/08/05 12:22:52;;;;;;;11.90;11.40;;;24.10;94.50;;;;;;3528140;40;21382;-59
2021/08/05 12:25:37;;;;;;;11.03;10.63;;;24.10;94.50;;;;;;3527876;40;20472;-60
2021/08/05 12:28:07;;;;;;;11.70;11.20;;;24.10;94.50;;;;;;3528043;40;21040;-60
2021/08/05 12:30:41;;;;;;;11.90;11.40;;;24.10;94.40;;;;;;3529604;40;20489;-59
2021/08/05 12:33:12;;;;;;;11.13;10.63;;;24.10;94.40;;;;;;3528595;40;20469;-58
2021/08/05 12:35:41;;;;;;;11.67;10.97;;;24.10;94.40;;;;;;3526747;40;20498;-58
2021/08/05 12:38:14;;;;;;;11.07;10.67;;;24.10;94.40;;;;;;3527805;40;20450;-60
2021/08/05 12:40:47;;;;;;;11.70;10.90;;;24.10;94.50;;;;;;3529192;40;20481;-58
2021/08/05 12:43:16;;;;;;;12.40;11.70;;;24.10;94.40;;;;;;3526287;40;20517;-60
2021/08/05 12:45:47;;;;;;;10.73;10.23;;;24.10;94.40;;;;;;3527580;40;20554;-61